AirNav   Everest Fuels
 
 497 users online  

WI19 Cacic Airport
Montello, Wisconsin, USA

GOING TO MONTELLO?


FAA INFORMATION EFFECTIVE 26 JANUARY 2023

Location

FAA Identifier: WI19
Lat/Long: 43-47-59.9200N 089-26-00.4360W
43-47.998667N 089-26.007267W
43.7999778,-89.4334544
(estimated)
Elevation: 805 ft. / 245.4 m (surveyed)
Variation: 00W (1985)
From city: 4 miles W of MONTELLO, WI
Time zone: UTC -6 (UTC -5 during Daylight Saving Time)
Zip code: 53949

Airport Operations

Airport use: Private use. Permission required prior to landing
Activation date: 02/1977
Control tower: no
ARTCC: CHICAGO CENTER
FSS: GREEN BAY FLIGHT SERVICE STATION
Attendance: UNATNDD
Wind indicator: yes
Segmented circle: no

Airport Communications

WX AWOS-3PT at Y50 (16 nm N): 119.475 (920-787-0515)

Nearby radio navigation aids

VOR radial/distance  VOR name  Freq  Var
DLLr041/20.7DELLS VORTAC117.0003E
MSNr351/39.5MADISON VORTAC108.6003E
OSHr251/39.6OSHKOSH VORTAC116.7502E

Airport Services

Parking: tiedowns
Airframe service: NONE
Powerplant service: NONE
Bottled oxygen: NONE
Bulk oxygen: NONE

Runway Information

Runway 9/27

Dimensions: 1850 x 75 ft. / 564 x 23 m
Surface: turf, in fair condition
RUNWAY 9  RUNWAY 27
Traffic pattern: leftleft
Runway end identifier lights: nono
Obstructions: 20 ft. bldgs, 40 ft. from runway, 30 ft. right of centerline, 2:1 slope to clear
+30' TREES
road, 30 ft. from runway, 2:1 slope to clear
+45' TREE 85' RIGHT OF CNTRLN.

Airport Ownership and Management from official FAA records

Ownership: Privately-owned
Owner: DONNA WISSBAUM
W5552 HWY 23
MONTELLO, WI 53949-8042
Phone 608-589-5327
Manager: MIKE CACIC
W5552 HWY 23
MONTELLO, WI 53949
Phone 608-617-6986
EMAIL ADDRESS: MKCACIC1@OPTONLINE.NET (ALL LOWER CASE)

Airport Operational Statistics

Aircraft based on the field: 2
Single engine airplanes: 2
    
Aircraft operations: avg 25/month *
67% local general aviation
33% transient general aviation
* for 12-month period ending 19 June 1981

Additional Remarks

RWY NOT PLOWED WINTER MONTHS AND CLSD EXCPT SKI ACFTS.
FOR CD CTC CHICAGO ARTCC AT 630-906-8921.

Instrument Procedures

There are no published instrument procedures at WI19.

Some nearby airports with instrument procedures:

C47 - Portage Municipal Airport (15 nm S)
Y50 - Wautoma Municipal Airport (16 nm N)
63C - Adams County Airport-Legion Field (18 nm NW)
KDLL - Baraboo/Wisconsin Dells Regional Airport (22 nm SW)
C35 - Reedsburg Municipal Airport (29 nm SW)
 
Loc | Ops | Rwys | IFR | FBO | Links
Com | Nav | Svcs | Stats | Notes
Area around WI19 (Cacic Airport)
 
Road maps at: MapQuest Bing Google
 
Aerial photo
No photo
 
Sectional chart

 
Airport distance calculator
Flying to Cacic Airport? Find the distance to fly.

From to WI19

Sunrise and sunset
Times for 27-Jan-2023
 Local
(UTC-6)
 Zulu
(UTC)
Morning civil twilight06:5012:50
Sunrise07:2113:21
Sunset17:0023:00
Evening civil twilight17:3123:31

Current date and time
Zulu (UTC)  27-Jan-2023 10:46:44
Local (UTC-6)  27-Jan-2023 04:46:44
 
METAR
KY50 
16nm N 
270956Z AUTO 16006KT 10SM FEW025 SCT095 M12/M13 A2973 RMK AO2 SLP081 T11221133 FZRANO $
KDLL 
22nm SW 
271035Z AUTO 18014G18KT 10SM BKN110 M08/M11 A2968 RMK AO2 T10821108
KC35 
29nm SW 
271035Z AUTO 17011G15KT 10SM BKN048 BKN120 M09/M12 A2967 RMK AO2 T10911124 PWINO
K82C 
31nm W 
271035Z AUTO 16013KT 10SM BKN045 BKN070 OVC100 M08/M11 A2964 RMK AO2 T10801110
TAF
KVOK 
37nm W 
261800Z 2618/2723 32012KT 9000 -SN BKN015 OVC030 620153 QNH2985INS BECMG 2620/2621 VRB06KT 9999 NSW BKN008 OVC015 620083 QNH2997INS BECMG 2709/2710 17009KT 9999 BKN015 OVC040 620153 510053 QNH2961INS BECMG 2717/2718 21012G18KT 9999 BKN025 620253 510053 QNH2953INS TX06/2620Z TNM18/2704Z LAST NO AMDS AFT 2623 NEXT 2709
KMSN 
40nm S 
270628Z 2706/2806 22005KT P6SM SKC FM270700 22010KT P6SM BKN010 FM270900 18012KT P6SM SCT025 BKN120 FM271300 20014G27KT 1 1/2SM -SN OVC020 FM271700 20015G25KT 2SM -SN OVC015 FM271900 23015G23KT P6SM VCSH OVC011 FM280000 28014G24KT P6SM BKN040
NOTAMs
Click for the latest NOTAMs
NOTAMs are issued by the DoD/FAA and will open in a separate window not controlled by AirNav.

 

 
 

Would you like to see your business listed on this page?

 If your business provides an interesting product or service to pilots, flight crews, aircraft, or users of the Cacic Airport, you should consider listing it here.  To start the listing process, click on the button below
 
Add a business
 

Other Pages about Cacic Airport

Update a link
 
Copyright © AirNav, LLC. All rights reserved. Privacy Policy  Contact